0,00 -
Pkt Einheit
Index Typ
0,00% %
0,00 abs
ISIN: US78378X1072 WKN: A0AET0 Börse: Commerzbank CFD Datum: -

S&P 500 Index

Name Kurs +/- abs. +/- % Zeit 1 Woche % 1 Monat % 3 Monate % 6 Monate % 1 Jahr % 10 Jahre %
3M Co. 167,540 1,600 0,96 22.10.19 1,82 -0,49 -4,98 -24,07 -17,59 110,61
Abbott Laboratories 80,540 -1,110 -1,36 22.10.19 -0,40 -2,31 -7,29 9,58 19,16 235,21
AbbVie Inc. 77,870 0,570 0,74 22.10.19 3,76 6,78 13,68 -1,09 -8,27
Abiomed Inc. 170,840 -5,130 -2,92 22.10.19 -1,07 -8,71 -33,34 -32,56 -51,95 1.564,81
Accenture PLC 182,720 -4,620 -2,47 22.10.19 0,18 -2,98 -3,65 5,21 17,42 397,45
Activision Blizzard Inc. 54,520 -0,990 -1,78 22.10.19 -0,09 1,37 21,81 22,43 -20,45 348,02
Adobe Inc. 261,090 -5,750 -2,15 22.10.19 -4,49 -3,98 -13,52 -1,97 6,29 658,71
Advance Auto Parts Inc. 165,980 -0,050 -0,03 22.10.19 3,94 6,64 4,49 -2,38 0,76 339,93
Advanced Micro Devices Inc. 31,510 -0,520 -1,62 22.10.19 4,26 6,59 -2,50 13,66 27,92 449,40
AES Corp., The 16,900 0,460 2,80 22.10.19 2,62 2,18 -3,63 -7,07 9,53 9,89
Affiliated Managers Group Inc. 75,620 0,150 0,20 22.10.19 -0,87 -11,89 -14,19 -33,42 -37,03 10,06
AFLAC Inc. 52,420 -0,480 -0,91 22.10.19 0,13 1,79 -3,92 8,94 19,47 131,61
Agilent Technologies Inc. 74,690 -0,790 -1,05 22.10.19 -0,36 -3,19 9,25 -0,12 17,42 290,20
Air Products & Chemicals Inc. 206,970 -6,530 -3,06 22.10.19 -0,80 -3,63 -5,54 8,59 39,27 156,55
Akamai Technologies Inc. 89,080 -2,810 -3,06 22.10.19 0,61 2,75 11,17 19,82 40,98 325,42
Alaska Air Group Inc. 69,190 0,150 0,22 22.10.19 2,54 6,22 9,81 14,49 8,66
Albemarle Corp. 66,790 -0,450 -0,67 22.10.19 -0,93 -2,35 -8,12 -18,17 -30,87 94,84
Alexandria Real Est. Equ. Inc. 157,140 -0,410 -0,26 22.10.19 2,79 2,68 11,82 14,57 30,68
Alexion Pharmaceuticals Inc. 99,280 -1,450 -1,44 22.10.19 -3,90 -5,26 -17,65 -21,89 -18,71 321,38
Align Technology Inc. 213,600 3,560 1,69 22.10.19 0,38 12,60 -23,47 -27,73 -33,15 1.265,67
Allegion PLC 105,250 0,220 0,21 22.10.19 3,18 3,41 -2,77 11,78 28,86
Allergan PLC 174,970 0,270 0,15 22.10.19 2,67 4,94 7,42 24,55 -6,90 203,88
Alliance Data Systems Corp. 124,400 -0,370 -0,30 22.10.19 0,86 -4,16 -18,31 -22,38 -40,00 98,17
Alliant Energy Corp. 53,380 0,230 0,43 22.10.19 2,23 -0,06 6,53 15,69
Allstate Corp., The 107,500 -1,630 -1,49 22.10.19 0,98 1,12 7,83 12,42 12,81 238,81
Alphabet Inc. (Class A) 1.241,200 -3,220 -0,26 22.10.19 0,18 1,19 9,24 -0,74 11,92 349,17
Alphabet Inc. (Class C) 1.242,930 -3,220 -0,26 22.10.19 0,25 1,32 9,50 -0,22 13,17
Altria Group Inc. 46,340 0,780 1,71 22.10.19 4,90 11,64 -8,27 -16,57 -25,69 150,61
Amazon.com Inc. 1.765,730 -19,930 -1,12 22.10.19 2,84 -0,47 -10,07 -5,39 -0,20 1.810,82
AMCOR PLC 9,670 -0,010 -0,10 22.10.19 0,94 0,21 -9,87
Ameren Corp. 77,050 0,390 0,51 22.10.19 1,13 -3,01 0,50 8,71 16,77 199,34
American Airlines Group Inc. 28,260 -0,360 -1,26 22.10.19 1,24 2,25 -13,01 -14,52 -11,04 110,13
American Electric Power Co.Inc 94,150 -0,330 -0,35 22.10.19 2,99 1,40 4,84 13,93 29,16 201,95
American Express Co. 118,610 -0,440 -0,37 22.10.19 1,24 1,93 -5,52 5,98 13,91 226,70
American International Grp Inc 53,240 -1,310 -2,40 22.10.19 -0,24 -5,05 -2,38 18,59 21,33 31,48
American Tower Corp. 226,740 -2,660 -1,16 22.10.19 2,31 1,70 10,98 19,28 53,70 487,30
American Water Works Co. Inc. 122,390 0,090 0,07 22.10.19 1,24 -0,43 6,14 16,55 33,62 514,57
Ameriprise Financial Inc. 142,450 -1,850 -1,28 22.10.19 2,91 -1,02 -2,39 0,83 8,36 277,35
AmerisourceBergen Corp. 86,060 -0,600 -0,69 22.10.19 4,16 1,81 1,89 21,95 -3,95 268,92
AMETEK Inc. 88,380 0,150 0,17 22.10.19 -0,93 -1,84 -0,43 1,86 25,15 441,60
Amgen Inc. 204,830 1,900 0,94 22.10.19 -0,85 3,04 15,37 15,07 2,47 256,96
Amphenol Corp. 99,090 -1,320 -1,31 22.10.19 2,02 7,02 3,36 -3,37 21,39 383,32
Analog Devices Inc. 110,890 -0,220 -0,20 22.10.19 -1,92 -3,66 -5,61 -2,20 34,60 303,01
Ansys Inc. 214,320 -4,460 -2,04 22.10.19 -3,54 1,02 3,44 15,73 43,10 423,40
Anthem Inc. 260,250 7,180 2,84 22.10.19 1,64 0,39 -16,14 3,72 -8,22 449,91
AON PLC 193,420 -1,610 -0,83 22.10.19 1,42 1,05 0,45 11,52 28,78 375,34
Apache Corp. 22,950 0,180 0,79 22.10.19 2,66 -11,74 -4,57 -38,61 -44,85 -77,69
Apartment Inv. & Managem. Co. 54,850 0,050 0,09 22.10.19 2,24 7,20 10,82 14,52 29,03 268,78
Apple Inc. 239,970 -0,540 -0,22 22.10.19 2,21 10,46 16,07 17,59 9,03 720,21
Applied Materials Inc. 51,980 -0,660 -1,25 22.10.19 -0,51 3,30 3,77 20,21 57,04 297,88
Aptiv PLC 90,390 1,030 1,15 22.10.19 1,49 2,63 11,57 -0,42 20,30
Archer Daniels Midland Co. 40,560 0,160 0,40 22.10.19 0,17 -1,22 0,05 -5,30 -17,38 29,99
Arconic Inc. 27,080 0,040 0,15 22.10.19 -2,94 1,20 7,60 33,33 26,06
Arista Networks Inc. 241,500 -2,340 -0,96 22.10.19 1,19 1,57 -15,14 -25,57 5,02
Assurant Inc. 126,240 -1,320 -1,03 22.10.19 1,67 0,73 14,36 38,67 22,38 295,29
AT & T Inc. 38,170 -0,060 -0,16 22.10.19 0,87 0,84 18,99 19,17 17,02 46,48
Atmos Energy Corp. 112,330 0,450 0,40 22.10.19 1,72 -0,97 4,13 12,93 15,93
Autodesk Inc. 140,070 -1,420 -1,00 22.10.19 -5,65 -7,73 -16,95 -17,81 4,31 422,49
Automatic Data Processing Inc. 159,490 -2,540 -1,57 22.10.19 -1,27 1,71 -3,06 0,07 12,54 368,63
AutoZone Inc. 1.100,110 -9,810 -0,88 22.10.19 0,50 -4,27 -5,55 7,22 50,75 697,93
Avalonbay Communities Inc. 221,830 -0,210 -0,09 22.10.19 2,15 6,21 8,23 14,66 28,47 201,56
Avery Dennison Corp. 118,430 -0,070 -0,06 22.10.19 4,30 5,03 5,53 4,05 22,20 209,24
Baker Hughes Co. 22,630 0,510 2,31 22.10.19 -0,81 -6,23 -7,68 -16,84 -26,24
Ball Corp. 70,850 -1,440 -1,99 22.10.19 0,18 -2,10 1,66 23,13 60,18 465,87
Bank of America Corp. 31,200 0,180 0,58 22.10.19 4,30 4,83 4,90 3,23 13,29 87,77
Baxter International Inc. 87,040 -1,410 -1,59 22.10.19 0,81 1,20 6,97 17,54 28,15 194,65
BB&T Corp. 53,470 0,020 0,04 22.10.19 1,35 1,96 5,97 8,55 13,53 102,92
Becton, Dickinson & Co. 250,280 -3,820 -1,50 22.10.19 0,32 0,22 0,63 12,91 7,97 273,46
Berkshire Hathaway Inc. 210,620 -0,870 -0,41 22.10.19 1,01 1,62 3,25 0,95 2,57 216,70
Best Buy Co. Inc. 72,400 0,930 1,30 22.10.19 5,20 7,04 -5,59 -1,56 -1,00 81,17
Biogen Inc. 281,870 58,360 26,11 22.10.19 -1,13 -6,40 -3,86 -2,32 -29,17 373,24
Bk of New York MellonCorp.,The 46,140 0,470 1,03 22.10.19 2,95 -1,53 -0,33 -5,23 -1,72 56,14
Blackrock Inc. 450,320 -3,330 -0,73 22.10.19 2,07 2,08 -4,20 -2,23 15,62 94,03
Block H. & R. Inc. 24,350 0,620 2,61 22.10.19 1,24 1,32 -14,95 -11,16 -8,13 19,37
Boeing Co. 337,000 5,940 1,79 22.10.19 -10,76 -12,74 -11,34 -11,76 -7,00 548,25
Booking Holdings Inc. 2.023,050 0,810 0,04 22.10.19 0,29 -0,46 6,84 9,66 10,67 1.055,37
BorgWarner Inc. 39,740 0,760 1,95 22.10.19 3,31 6,01 -2,50 -10,82 6,44 134,96
Boston Properties Inc. 130,840 0,860 0,66 22.10.19 0,88 -0,10 1,23 -1,19 13,02 105,57
Boston Scientific Corp. 38,180 -0,470 -1,22 22.10.19 0,49 -10,72 -9,06 10,65 5,54 361,22
Bristol-Myers Squibb Co. 54,420 1,220 2,29 22.10.19 2,64 5,20 24,39 17,60 4,56 136,87
Broadcom Inc. 287,490 -2,080 -0,72 22.10.19 -0,31 1,87 -2,24 -8,07 26,64 1.678,69
Broadridge Financial Solutions 121,670 -1,980 -1,60 22.10.19 -1,27 -2,41 -6,78 9,05 4,54
Brown-Forman Corp. Class B 64,550 0,540 0,84 22.10.19 1,86 0,57 16,02 20,82 34,28 288,31
C.H. Robinson Worldwide Inc. 88,850 2,040 2,35 22.10.19 1,78 2,73 4,31 -3,72 -5,24 47,16
Cabot Oil & Gas Corp. 18,520 0,270 1,48 22.10.19 1,45 1,11 -18,01 -30,26 -21,20 83,65
Cadence Design Systems Inc. 62,940 -3,810 -5,71 22.10.19 -3,00 -0,62 -9,72 2,16 61,54 741,03
Campbell Soup Co. 47,670 -0,220 -0,46 22.10.19 2,75 2,42 16,41 21,80 26,19 48,22
Capital One Financial Corp. 92,160 0,840 0,92 22.10.19 1,32 -1,53 -0,44 4,23 3,14 138,25
Capri Holdings Ltd. 31,820 0,360 1,14 22.10.19 4,52 -2,27 -11,75 -32,47 -45,97
Cardinal Health Inc. 50,740 0,330 0,65 22.10.19 5,24 5,26 13,20 11,38 -3,08 73,35
Carmax Inc. 94,180 -1,840 -1,92 22.10.19 3,90 13,46 13,28 26,84 40,32 323,00
Carnival Corp. 42,550 -0,570 -1,32 22.10.19 1,48 -10,58 -4,39 -18,75 -23,65 30,63
Caterpillar Inc. 133,690 1,460 1,10 22.10.19 0,92 3,18 -2,23 -7,13 2,73 125,11
Cboe Global Markets Inc. 114,680 -0,590 -0,51 22.10.19 0,19 -0,25 0,65 14,05
CBRE Group Inc. 51,710 -0,940 -1,79 22.10.19 0,30 -1,66 0,84 4,24 34,11 286,56
CBS Corp. Class B 36,340 -0,010 -0,03 22.10.19 -4,52 -13,20 -27,31 -28,88 -36,00 167,28
CDW Corp. 122,410 -1,650 -1,33 22.10.19 0,57 2,48 10,46 18,24 51,02
Celanese Corp. (Del.) 119,300 -2,010 -1,66 22.10.19 -0,60 -1,12 14,79 16,12 22,23
Celgene Corp. 104,700 1,300 1,26 22.10.19 2,43 4,06 15,57 10,68 28,27 269,88
Centene Corp. 48,750 2,980 6,51 22.10.19 1,24 -1,34 -12,30 -4,80 -35,22
Zum Index